Time;durP1;ratioP1;P1;durP2;ratioP2;P2;SDS_P1;SDS_P2;PMS_P1;PMS_P2;Temp;Humidity;BMP_temperature;BMP_pressure;BME280_temperature;BME280_humidity;BME280_pressure;Samples;Min_cycle;Max_cycle;Signal;HPM_P1;HPM_P2
2023/10/03 00:01:40;;;;;;;1317.27;634.70;;;17.30;99.90;;;;;;5038808;28;20044;-86
2023/10/03 00:04:10;;;;;;;1309.03;633.97;;;17.30;99.90;;;;;;5054940;28;20044;-86
2023/10/03 00:06:37;;;;;;;1365.63;578.87;;;17.20;99.90;;;;;;5086947;28;20123;-86
2023/10/03 00:09:03;;;;;;;1373.17;592.40;;;17.20;99.90;;;;;;5075021;28;20048;-86
2023/10/03 00:11:29;;;;;;;1315.83;641.40;;;17.20;99.90;;;;;;5054631;28;20043;-86
2023/10/03 00:13:54;;;;;;;1314.03;638.70;;;17.20;99.90;;;;;;5072944;28;20056;-87
2023/10/03 00:16:21;;;;;;;1371.10;579.40;;;17.20;99.90;;;;;;5054878;28;20590;-87
2023/10/03 00:18:47;;;;;;;1318.93;640.20;;;17.20;99.90;;;;;;5078127;28;20050;-86
2023/10/03 00:21:13;;;;;;;1377.03;592.80;;;17.10;99.90;;;;;;5092815;28;20135;-87
2023/10/03 00:23:38;;;;;;;1381.33;596.53;;;17.10;99.90;;;;;;5092385;28;20047;-87
2023/10/03 00:26:07;;;;;;;1318.23;650.77;;;17.10;99.90;;;;;;5092887;28;20131;-87
2023/10/03 00:28:36;;;;;;;1315.70;638.87;;;17.10;99.90;;;;;;5093089;28;20032;-87
2023/10/03 00:31:09;;;;;;;1314.30;638.40;;;17.10;99.90;;;;;;5092734;28;20039;-86
2023/10/03 00:33:36;;;;;;;1311.27;642.87;;;17.10;99.90;;;;;;5074465;28;20506;-87
2023/10/03 00:36:03;;;;;;;1369.70;589.53;;;17.10;99.90;;;;;;5093160;28;20036;-86
2023/10/03 00:38:29;;;;;;;1364.63;582.23;;;17.10;99.90;;;;;;5074764;28;20506;-87
2023/10/03 00:40:55;;;;;;;1370.07;594.13;;;17.10;99.90;;;;;;5092454;28;20047;-86
2023/10/03 00:43:22;;;;;;;1316.13;645.33;;;17.10;99.90;;;;;;5066184;28;20048;-86
2023/10/03 00:45:51;;;;;;;1372.47;590.43;;;17.10;99.90;;;;;;5091460;28;20050;-87
2023/10/03 00:48:18;;;;;;;1312.27;640.30;;;17.10;99.90;;;;;;5074429;28;20040;-86
2023/10/03 00:50:45;;;;;;;1370.67;590.57;;;17.10;99.90;;;;;;5074747;28;20556;-86
2023/10/03 00:53:13;;;;;;;1368.83;591.20;;;17.10;99.90;;;;;;5091924;28;20048;-86
2023/10/03 00:55:43;;;;;;;1307.40;636.23;;;17.10;99.90;;;;;;5074820;28;20055;-86
2023/10/03 01:00:41;;;;;;;1361.87;585.07;;;17.10;99.90;;;;;;5092692;28;20070;-86
2023/10/03 01:03:24;;;;;;;1365.50;590.33;;;17.10;99.90;;;;;;5092477;28;20042;-87
2023/10/03 01:05:53;;;;;;;1362.30;589.87;;;17.10;99.90;;;;;;5092408;28;20105;-87
2023/10/03 01:08:23;;;;;;;1365.07;587.33;;;17.10;99.90;;;;;;5074539;28;20048;-87
2023/10/03 01:10:49;;;;;;;1360.20;586.77;;;17.00;99.90;;;;;;5074648;28;20048;-86
2023/10/03 01:13:15;;;;;;;1308.23;636.80;;;17.00;99.90;;;;;;5057517;28;20036;-87
2023/10/03 01:15:43;;;;;;;1367.87;590.00;;;17.00;99.90;;;;;;5074141;28;20082;-87
2023/10/03 01:18:13;;;;;;;1364.90;589.13;;;17.00;99.90;;;;;;5074729;28;20059;-87
2023/10/03 01:20:41;;;;;;;1373.40;599.73;;;17.00;99.90;;;;;;5092283;28;20048;-86
2023/10/03 01:23:10;;;;;;;1366.23;585.13;;;17.10;99.90;;;;;;5078133;28;20079;-86
2023/10/03 01:25:41;;;;;;;1307.00;632.40;;;17.00;99.90;;;;;;5078364;28;20040;-85
2023/10/03 01:28:09;;;;;;;1368.43;587.07;;;17.00;99.90;;;;;;5078122;28;20502;-86
2023/10/03 01:30:36;;;;;;;1313.83;636.37;;;17.00;99.90;;;;;;5096712;28;20118;-87
2023/10/03 01:33:02;;;;;;;1314.47;625.57;;;17.00;99.90;;;;;;5096540;28;20051;-86
2023/10/03 01:35:28;;;;;;;1317.50;635.80;;;17.00;99.90;;;;;;5076922;28;20040;-84
2023/10/03 01:37:54;;;;;;;1369.87;591.73;;;17.00;99.90;;;;;;5095844;28;20381;-86
2023/10/03 01:40:20;;;;;;;1370.53;586.03;;;17.00;99.90;;;;;;5095963;28;20044;-86
2023/10/03 01:42:47;;;;;;;1315.57;638.70;;;17.00;99.90;;;;;;5095385;28;20043;-86
2023/10/03 01:45:17;;;;;;;1377.83;595.27;;;16.90;99.90;;;;;;5077555;28;20073;-86
2023/10/03 01:47:49;;;;;;;1375.63;593.03;;;16.90;99.90;;;;;;5076810;28;20122;-86
2023/10/03 01:50:17;;;;;;;1315.23;640.60;;;17.00;99.90;;;;;;5077439;28;20036;-86
2023/10/03 01:52:43;;;;;;;1370.40;590.43;;;16.90;99.90;;;;;;5077275;28;20144;-85
2023/10/03 01:55:20;;;;;;;1308.63;631.43;;;16.90;99.90;;;;;;5095544;28;20054;-85
2023/10/03 01:57:47;;;;;;;1310.90;636.80;;;16.90;99.90;;;;;;5056539;28;20485;-86
2023/10/03 02:02:47;;;;;;;1364.53;590.33;;;16.90;99.90;;;;;;5095672;28;20401;-85
2023/10/03 02:05:14;;;;;;;1366.73;588.00;;;16.90;99.90;;;;;;5077560;28;20089;-85
2023/10/03 02:07:41;;;;;;;1367.67;595.27;;;16.70;99.90;;;;;;5077099;28;20050;-86
2023/10/03 02:10:07;;;;;;;1366.80;584.87;;;16.90;99.90;;;;;;5095148;28;20393;-86
2023/10/03 02:12:33;;;;;;;1314.43;633.20;;;16.90;99.90;;;;;;5077437;28;20055;-86
2023/10/03 02:15:07;;;;;;;1365.23;581.30;;;16.80;99.90;;;;;;5073230;28;20098;-85
2023/10/03 02:17:34;;;;;;;1367.23;585.00;;;16.80;99.90;;;;;;5040637;28;20049;-86
2023/10/03 02:20:00;;;;;;;1314.80;634.27;;;16.80;99.90;;;;;;5057074;28;20508;-87
2023/10/03 02:22:26;;;;;;;1315.83;633.67;;;16.80;99.90;;;;;;5069939;28;20077;-86
2023/10/03 02:24:52;;;;;;;1361.43;580.20;;;16.80;99.90;;;;;;5076796;28;20048;-85
2023/10/03 02:27:17;;;;;;;1369.07;588.93;;;16.70;99.90;;;;;;5076624;28;20047;-86
2023/10/03 02:29:44;;;;;;;1309.53;624.20;;;16.70;99.90;;;;;;5072869;28;20041;-86
2023/10/03 02:32:11;;;;;;;1369.90;594.10;;;16.60;99.90;;;;;;5063396;28;20504;-86
2023/10/03 02:34:37;;;;;;;1367.70;588.20;;;16.70;99.90;;;;;;5055290;28;20127;-86
2023/10/03 02:37:04;;;;;;;1314.97;627.70;;;16.60;99.90;;;;;;5074477;28;20119;-86
2023/10/03 02:39:39;;;;;;;1374.57;591.63;;;16.60;99.90;;;;;;5073430;28;20396;-86
2023/10/03 02:42:06;;;;;;;1373.68;594.63;;;16.60;99.90;;;;;;5056526;28;20105;-86
2023/10/03 02:44:32;;;;;;;1374.43;596.17;;;16.60;99.90;;;;;;5056867;28;20053;-86
2023/10/03 02:46:58;;;;;;;1368.47;583.43;;;16.50;99.90;;;;;;5039600;28;20059;-86
2023/10/03 02:49:24;;;;;;;1375.73;589.50;;;16.60;99.90;;;;;;5064960;28;20040;-86
2023/10/03 02:51:50;;;;;;;1310.43;625.33;;;16.60;99.90;;;;;;5076418;28;20058;-86
2023/10/03 02:54:15;;;;;;;1375.00;593.53;;;16.60;99.90;;;;;;5072260;28;20139;-86
2023/10/03 02:56:42;;;;;;;1314.77;631.93;;;16.60;99.90;;;;;;5068110;28;20043;-86
2023/10/03 02:59:08;;;;;;;1313.57;629.30;;;16.60;99.90;;;;;;5056538;28;20045;-86
2023/10/03 03:01:35;;;;;;;1378.97;587.00;;;16.60;99.90;;;;;;5040273;28;20436;-86
2023/10/03 03:04:02;;;;;;;1372.50;587.17;;;16.60;99.90;;;;;;5074178;28;20041;-86
2023/10/03 03:06:31;;;;;;;1317.63;630.63;;;16.70;99.90;;;;;;5074045;28;20041;-86
2023/10/03 03:08:56;;;;;;;1374.20;588.77;;;16.70;99.90;;;;;;5084839;28;20102;-85
2023/10/03 03:11:22;;;;;;;1319.90;627.73;;;16.70;99.90;;;;;;5075816;28;20048;-85
2023/10/03 03:13:49;;;;;;;1313.70;627.37;;;16.70;99.90;;;;;;5075703;28;20043;-86
2023/10/03 03:16:15;;;;;;;1318.10;624.10;;;16.80;99.90;;;;;;5093766;28;20088;-86
2023/10/03 03:18:42;;;;;;;1317.20;618.70;;;17.00;99.90;;;;;;5076018;28;20070;-86
2023/10/03 03:21:13;;;;;;;1372.30;586.73;;;16.90;99.90;;;;;;5087437;28;20044;-86
2023/10/03 03:23:42;;;;;;;1368.20;587.83;;;16.90;99.90;;;;;;5093898;28;20063;-86
2023/10/03 03:28:40;;;;;;;1313.03;625.57;;;17.00;99.90;;;;;;5094209;28;20514;-86
2023/10/03 03:31:21;;;;;;;1316.37;631.07;;;17.00;99.90;;;;;;5093706;28;20109;-86
2023/10/03 03:33:52;;;;;;;1382.37;590.93;;;17.10;99.90;;;;;;5093775;28;20404;-86
2023/10/03 03:36:22;;;;;;;1374.57;593.10;;;17.10;99.90;;;;;;5075329;28;20480;-86
2023/10/03 03:38:51;;;;;;;1377.33;591.27;;;17.20;99.90;;;;;;5075732;28;20400;-87
2023/10/03 03:41:18;;;;;;;1316.57;627.70;;;17.30;99.90;;;;;;5093864;28;20044;-86
2023/10/03 03:43:44;;;;;;;1319.43;629.77;;;17.30;99.90;;;;;;5074619;28;20048;-85
2023/10/03 03:46:12;;;;;;;1374.00;588.83;;;17.40;99.90;;;;;;5080747;28;20059;-86
2023/10/03 03:48:39;;;;;;;1317.50;632.47;;;17.40;99.90;;;;;;5055304;28;20051;-86
2023/10/03 03:51:12;;;;;;;1315.03;636.73;;;17.40;99.90;;;;;;5073858;28;20459;-86
2023/10/03 03:53:42;;;;;;;1377.13;588.57;;;17.60;99.90;;;;;;5038830;28;20060;-86
2023/10/03 03:56:08;;;;;;;1312.97;631.37;;;17.60;99.90;;;;;;5055471;28;20049;-87
2023/10/03 03:58:45;;;;;;;1370.50;592.70;;;17.70;99.90;;;;;;5073305;28;20374;-86
2023/10/03 04:01:19;;;;;;;1310.83;630.47;;;17.70;99.90;;;;;;5075073;28;20041;-86
2023/10/03 04:03:46;;;;;;;1377.40;591.53;;;17.80;99.90;;;;;;5092101;28;20047;-85
2023/10/03 04:06:12;;;;;;;1371.23;585.70;;;17.80;99.90;;;;;;5074406;28;20047;-86
2023/10/03 04:08:38;;;;;;;1313.70;637.27;;;17.80;99.90;;;;;;5074932;28;20435;-86
2023/10/03 04:11:07;;;;;;;1320.17;625.20;;;17.80;99.90;;;;;;5075149;28;20036;-86
2023/10/03 04:13:38;;;;;;;1376.23;587.03;;;17.80;99.90;;;;;;5058046;28;20058;-86
2023/10/03 04:16:09;;;;;;;1317.57;630.40;;;17.90;99.90;;;;;;5054464;28;20105;-86
2023/10/03 04:18:37;;;;;;;1318.93;641.13;;;17.90;99.90;;;;;;5073133;28;20055;-86
2023/10/03 04:21:04;;;;;;;1370.57;591.37;;;17.90;99.90;;;;;;5070980;28;20516;-85
2023/10/03 04:23:29;;;;;;;1315.37;636.63;;;17.90;99.90;;;;;;5071062;28;20040;-86
2023/10/03 04:25:56;;;;;;;1372.03;595.87;;;17.90;99.90;;;;;;5054865;28;20123;-86
2023/10/03 04:28:22;;;;;;;1375.40;587.40;;;18.00;99.90;;;;;;5072640;28;20101;-86
2023/10/03 04:30:49;;;;;;;1316.93;641.10;;;18.00;99.90;;;;;;5037879;28;20127;-86
2023/10/03 04:33:20;;;;;;;1370.73;586.40;;;18.00;99.90;;;;;;5054735;28;20198;-86
2023/10/03 04:35:47;;;;;;;1373.50;593.27;;;18.10;99.90;;;;;;5054590;28;20130;-86
2023/10/03 04:38:15;;;;;;;1373.20;588.63;;;18.10;99.90;;;;;;5072526;28;20041;-86
2023/10/03 04:40:41;;;;;;;1374.40;597.03;;;18.10;99.90;;;;;;5062047;28;20040;-86
2023/10/03 04:43:10;;;;;;;1370.70;590.70;;;18.10;99.90;;;;;;5074627;28;20111;-87
2023/10/03 04:45:40;;;;;;;1369.27;589.87;;;18.10;99.90;;;;;;5074321;28;20051;-86
2023/10/03 04:48:06;;;;;;;1314.10;638.03;;;18.10;99.90;;;;;;5074867;28;20044;-86
2023/10/03 04:50:32;;;;;;;1376.67;593.73;;;18.20;99.90;;;;;;5092980;28;20048;-86
2023/10/03 04:53:00;;;;;;;1309.93;631.27;;;18.10;99.90;;;;;;5057940;28;20071;-87
2023/10/03 04:55:26;;;;;;;1370.80;593.83;;;18.20;99.90;;;;;;5072198;28;20517;-86
2023/10/03 04:57:52;;;;;;;1315.10;643.77;;;18.20;99.90;;;;;;5061791;28;20425;-86
2023/10/03 05:00:21;;;;;;;1316.37;643.57;;;18.30;99.90;;;;;;5059695;28;20467;-86
2023/10/03 05:02:53;;;;;;;1365.10;584.13;;;18.30;99.90;;;;;;5068847;28;20409;-86
2023/10/03 05:05:21;;;;;;;1370.17;593.70;;;18.30;99.90;;;;;;5092292;28;20044;-86
2023/10/03 05:07:49;;;;;;;1314.73;648.83;;;18.40;99.90;;;;;;5078032;28;20032;-85
2023/10/03 05:10:17;;;;;;;1311.73;645.57;;;18.40;99.90;;;;;;5070558;28;20118;-86
2023/10/03 05:12:45;;;;;;;1310.53;640.97;;;18.50;99.90;;;;;;5078539;28;20048;-85
2023/10/03 05:15:12;;;;;;;1313.40;646.40;;;18.50;99.90;;;;;;5078151;28;20040;-87
2023/10/03 05:17:40;;;;;;;1311.00;642.53;;;18.50;99.90;;;;;;5078058;28;20491;-86
2023/10/03 05:20:07;;;;;;;1315.53;646.97;;;18.50;99.90;;;;;;5095531;28;20048;-85
2023/10/03 05:22:33;;;;;;;1317.57;636.97;;;18.60;99.90;;;;;;5096172;28;20044;-86
2023/10/03 05:25:03;;;;;;;1318.30;653.60;;;18.60;99.90;;;;;;5077821;28;20036;-86
2023/10/03 05:27:29;;;;;;;1369.67;589.63;;;18.60;99.90;;;;;;5061416;28;20373;-86
2023/10/03 05:30:08;;;;;;;1312.30;647.20;;;18.70;99.90;;;;;;5075698;28;20036;-86
2023/10/03 05:32:37;;;;;;;1369.60;585.60;;;18.70;99.90;;;;;;5070349;28;20041;-85
2023/10/03 05:35:05;;;;;;;1310.37;642.37;;;18.70;99.90;;;;;;5057770;28;20040;-86
2023/10/03 05:37:34;;;;;;;1311.10;643.93;;;18.80;99.90;;;;;;5090392;28;20047;-86
2023/10/03 05:40:15;;;;;;;1322.13;654.67;;;18.80;99.90;;;;;;5077336;28;20130;-85
2023/10/03 05:42:45;;;;;;;1317.07;649.30;;;18.80;99.90;;;;;;5077655;28;20040;-85
2023/10/03 05:45:15;;;;;;;1377.00;594.33;;;18.80;99.90;;;;;;5095925;28;20044;-86
2023/10/03 05:47:48;;;;;;;1315.70;650.40;;;18.80;99.90;;;;;;5077662;28;20076;-86
2023/10/03 05:50:21;;;;;;;1311.90;643.43;;;18.80;99.90;;;;;;5077239;28;20052;-84
2023/10/03 05:52:47;;;;;;;1313.63;655.73;;;18.80;99.90;;;;;;5077023;28;20052;-85
2023/10/03 05:55:14;;;;;;;1371.00;586.00;;;18.80;99.90;;;;;;5077261;28;20044;-86
2023/10/03 05:57:43;;;;;;;1317.50;660.17;;;18.80;99.90;;;;;;5060842;28;20143;-86
2023/10/03 06:00:13;;;;;;;1319.70;652.43;;;18.80;99.90;;;;;;5073060;28;20495;-85
2023/10/03 06:02:39;;;;;;;1320.77;655.97;;;18.80;99.90;;;;;;5082158;28;20046;-84
2023/10/03 06:05:08;;;;;;;1324.30;654.17;;;18.80;99.90;;;;;;5095449;28;20455;-83
2023/10/03 06:07:37;;;;;;;1318.67;659.10;;;18.90;99.90;;;;;;5095639;28;20044;-83
2023/10/03 06:10:04;;;;;;;1330.87;657.47;;;18.90;99.90;;;;;;5094579;28;20052;-85
2023/10/03 06:12:33;;;;;;;1371.70;588.50;;;18.90;99.90;;;;;;5094613;28;20126;-84
2023/10/03 06:14:59;;;;;;;1319.40;656.87;;;18.90;99.90;;;;;;5095625;28;20154;-84
2023/10/03 06:17:25;;;;;;;1373.67;595.60;;;18.90;99.90;;;;;;5095116;28;20481;-83
2023/10/03 06:19:50;;;;;;;1311.47;647.50;;;19.00;99.90;;;;;;5094670;28;20512;-85
2023/10/03 06:22:17;;;;;;;1372.47;587.30;;;19.00;99.90;;;;;;5094742;28;20129;-84
2023/10/03 06:24:43;;;;;;;1374.07;589.77;;;19.00;99.90;;;;;;5095062;28;20089;-83
2023/10/03 06:27:10;;;;;;;1320.27;651.00;;;19.00;99.90;;;;;;5077051;28;20052;-85
2023/10/03 06:29:39;;;;;;;1310.80;653.13;;;19.00;99.90;;;;;;5095097;28;20052;-84
2023/10/03 06:32:04;;;;;;;1315.23;656.17;;;19.10;99.90;;;;;;5094628;28;20515;-83
2023/10/03 06:34:31;;;;;;;1374.87;589.93;;;19.00;99.90;;;;;;5076792;28;20052;-84
2023/10/03 06:36:57;;;;;;;1316.53;656.83;;;19.00;99.90;;;;;;5059942;28;20047;-83
2023/10/03 06:39:23;;;;;;;1370.23;588.23;;;19.00;99.90;;;;;;5094302;28;20127;-83
2023/10/03 06:41:50;;;;;;;1370.93;589.30;;;19.10;99.90;;;;;;5075666;28;20034;-81
2023/10/03 06:44:16;;;;;;;1318.13;662.47;;;19.00;99.90;;;;;;5074021;28;20044;-83
2023/10/03 06:46:42;;;;;;;1315.60;661.47;;;19.00;99.90;;;;;;5092503;28;20034;-82
2023/10/03 06:49:10;;;;;;;1377.93;593.13;;;19.00;99.90;;;;;;5075879;28;20052;-83
2023/10/03 06:51:37;;;;;;;1384.17;594.63;;;19.00;99.90;;;;;;5094653;28;20130;-82
2023/10/03 06:54:04;;;;;;;1320.83;654.33;;;18.90;99.90;;;;;;5094558;28;20044;-83
2023/10/03 06:56:32;;;;;;;1325.97;647.27;;;18.90;99.90;;;;;;5093675;28;20135;-83
2023/10/03 06:58:59;;;;;;;1382.20;587.50;;;18.90;99.90;;;;;;5094655;28;20050;-85
2023/10/03 07:01:25;;;;;;;1385.20;588.97;;;19.00;99.90;;;;;;5076583;28;20388;-83
2023/10/03 07:03:53;;;;;;;1381.60;588.60;;;19.00;99.90;;;;;;5093794;28;20044;-83
2023/10/03 07:06:19;;;;;;;1384.53;589.57;;;18.90;99.90;;;;;;5089796;28;20040;-83
2023/10/03 07:08:45;;;;;;;1328.33;657.50;;;18.90;99.90;;;;;;5094238;28;20533;-83
2023/10/03 07:11:12;;;;;;;1333.43;664.00;;;18.90;99.90;;;;;;5093859;28;20040;-83
2023/10/03 07:13:39;;;;;;;1392.50;595.83;;;18.90;99.90;;;;;;5092570;28;20127;-82
2023/10/03 07:16:04;;;;;;;1330.93;662.83;;;18.90;99.90;;;;;;5076238;28;20391;-83
2023/10/03 07:18:31;;;;;;;1331.40;661.43;;;18.90;99.90;;;;;;5093135;28;20044;-83
2023/10/03 07:20:56;;;;;;;1325.90;657.43;;;18.80;99.90;;;;;;5071485;28;20059;-84
2023/10/03 07:23:23;;;;;;;1326.17;657.63;;;18.80;99.90;;;;;;5066056;28;20140;-82
2023/10/03 07:25:49;;;;;;;1325.23;655.97;;;18.80;99.90;;;;;;5073797;28;20040;-82
2023/10/03 07:28:14;;;;;;;1390.77;594.23;;;18.70;99.90;;;;;;5073782;28;20045;-81
2023/10/03 07:30:41;;;;;;;1329.67;658.13;;;18.70;99.90;;;;;;5055590;28;20067;-82
2023/10/03 07:33:11;;;;;;;1325.87;660.83;;;18.70;99.90;;;;;;5055649;28;20052;-82
2023/10/03 07:35:41;;;;;;;1330.80;654.83;;;18.60;99.90;;;;;;5059475;28;20404;-82
2023/10/03 07:38:10;;;;;;;1384.83;587.47;;;18.60;99.90;;;;;;5072785;28;20048;-81
2023/10/03 07:40:38;;;;;;;1323.93;648.90;;;18.50;99.90;;;;;;5093849;28;20044;-82
2023/10/03 07:43:07;;;;;;;1324.80;662.63;;;18.50;99.90;;;;;;5093129;28;20105;-82
2023/10/03 07:45:32;;;;;;;1381.83;584.23;;;18.40;99.90;;;;;;5092643;28;20050;-81
2023/10/03 07:48:04;;;;;;;1322.37;650.33;;;18.40;99.90;;;;;;5092879;28;20392;-81
2023/10/03 07:50:31;;;;;;;1379.20;589.63;;;18.40;99.90;;;;;;5093569;28;20087;-81
2023/10/03 07:52:57;;;;;;;1318.93;647.40;;;18.30;99.90;;;;;;5093326;28;20115;-82
2023/10/03 07:55:26;;;;;;;1379.37;588.20;;;18.30;99.90;;;;;;5092810;28;20063;-81
2023/10/03 07:57:54;;;;;;;1385.83;592.53;;;18.30;99.90;;;;;;5093510;28;20123;-82
2023/10/03 08:00:21;;;;;;;1379.63;594.67;;;18.20;99.90;;;;;;5075216;28;20100;-83
2023/10/03 08:02:49;;;;;;;1319.97;646.10;;;18.10;99.90;;;;;;5093251;28;20040;-82
2023/10/03 08:05:16;;;;;;;1319.70;642.33;;;18.00;99.90;;;;;;5093140;28;20050;-81
2023/10/03 08:07:47;;;;;;;1385.93;591.07;;;17.90;99.90;;;;;;5075302;28;20047;-81
2023/10/03 08:10:14;;;;;;;1385.67;586.20;;;17.90;99.90;;;;;;5075122;28;20098;-82
2023/10/03 08:12:40;;;;;;;1321.10;646.87;;;17.90;99.90;;;;;;5093202;28;20058;-81
2023/10/03 08:15:19;;;;;;;1386.27;585.43;;;17.90;99.90;;;;;;5075118;28;20050;-82
2023/10/03 08:17:48;;;;;;;1319.47;643.13;;;17.90;99.90;;;;;;5092839;28;20476;-82
2023/10/03 08:20:16;;;;;;;1373.33;584.50;;;17.90;99.90;;;;;;5093140;28;20048;-81
2023/10/03 08:22:42;;;;;;;1314.20;622.40;;;17.80;99.90;;;;;;5093059;28;20131;-81
2023/10/03 08:25:11;;;;;;;1373.73;579.87;;;17.70;99.90;;;;;;5093117;28;20115;-81
2023/10/03 08:27:36;;;;;;;1313.00;631.00;;;17.70;99.90;;;;;;5093005;28;20040;-81
2023/10/03 08:30:04;;;;;;;1371.77;580.33;;;17.70;99.90;;;;;;5092877;28;20433;-83
2023/10/03 08:32:39;;;;;;;1371.03;583.83;;;17.60;99.90;;;;;;5092778;28;20048;-83
2023/10/03 08:35:08;;;;;;;1307.88;632.75;;;17.60;99.90;;;;;;5091806;28;20047;-82
2023/10/03 08:37:38;;;;;;;1308.73;627.70;;;17.60;99.90;;;;;;5093224;28;20044;-82
2023/10/03 08:40:19;;;;;;;1310.97;635.13;;;17.60;99.90;;;;;;5092938;28;20488;-81
2023/10/03 08:42:52;;;;;;;1375.33;589.40;;;17.50;99.90;;;;;;5093098;28;20396;-81
2023/10/03 08:45:25;;;;;;;1368.90;581.17;;;17.50;99.90;;;;;;5092981;28;20579;-82
2023/10/03 08:47:53;;;;;;;1306.53;627.73;;;17.60;99.90;;;;;;5092763;28;20036;-81
2023/10/03 08:50:46;;;;;;;1368.03;580.57;;;17.70;99.90;;;;;;5092873;28;20503;-82
2023/10/03 08:53:16;;;;;;;1305.67;618.80;;;17.70;99.90;;;;;;4994367;28;20116;-82
2023/10/03 08:55:45;;;;;;;1369.53;583.00;;;17.50;99.90;;;;;;4994213;28;20497;-81
2023/10/03 08:58:15;;;;;;;1309.23;626.37;;;17.40;99.90;;;;;;4994573;28;20058;-82
2023/10/03 09:00:44;;;;;;;1371.77;583.23;;;17.40;99.90;;;;;;5001807;28;20049;-80
2023/10/03 09:03:15;;;;;;;1365.23;580.23;;;17.30;99.90;;;;;;4991345;28;20495;-82
2023/10/03 09:05:41;;;;;;;1368.03;578.43;;;17.10;99.90;;;;;;4991251;28;20077;-82
2023/10/03 09:08:09;;;;;;;1365.50;582.30;;;17.00;99.90;;;;;;4991160;28;20507;-81
2023/10/03 09:10:50;;;;;;;1312.80;609.97;;;16.80;99.90;;;;;;4974927;28;20625;-81
2023/10/03 09:13:23;;;;;;;1369.73;580.20;;;16.80;99.90;;;;;;4990851;28;20043;-81
2023/10/03 09:15:50;;;;;;;1369.87;582.80;;;16.80;99.90;;;;;;4991031;28;20042;-82
2023/10/03 09:18:21;;;;;;;1306.43;604.10;;;16.80;99.90;;;;;;4991055;28;20054;-82
2023/10/03 09:20:49;;;;;;;1313.70;609.77;;;16.70;99.90;;;;;;4990610;28;20062;-82
2023/10/03 09:23:17;;;;;;;1373.80;581.90;;;16.80;99.90;;;;;;4990905;28;20050;-82
2023/10/03 09:25:52;;;;;;;1376.93;578.67;;;16.80;99.90;;;;;;4975014;28;20086;-81
2023/10/03 09:28:18;;;;;;;1314.95;603.85;;;16.80;99.90;;;;;;4994137;28;20399;-81
2023/10/03 09:30:44;;;;;;;1378.07;581.03;;;16.80;99.90;;;;;;5062423;28;20056;-82
2023/10/03 09:33:12;;;;;;;1377.80;581.40;;;16.70;99.90;;;;;;5064885;28;20104;-82
2023/10/03 09:35:39;;;;;;;1312.47;594.07;;;16.70;99.90;;;;;;5101738;28;20047;-82
2023/10/03 09:38:08;;;;;;;1316.43;603.60;;;16.50;99.90;;;;;;5085148;28;20055;-81
2023/10/03 09:40:50;;;;;;;1376.60;578.07;;;16.40;99.90;;;;;;5101297;28;20040;-82
2023/10/03 09:43:19;;;;;;;1372.37;579.13;;;16.40;99.90;;;;;;5104416;28;20488;-82
2023/10/03 09:45:55;;;;;;;1319.73;598.80;;;16.30;99.90;;;;;;5104481;28;20365;-81
2023/10/03 09:48:24;;;;;;;1385.30;580.27;;;16.20;99.90;;;;;;5102785;28;20047;-82
2023/10/03 09:50:54;;;;;;;1322.27;603.17;;;16.20;99.90;;;;;;5098847;28;20059;-80
2023/10/03 09:53:27;;;;;;;1313.73;606.30;;;16.20;99.90;;;;;;5097851;28;20610;-83
2023/10/03 09:55:55;;;;;;;1381.90;582.63;;;16.30;99.90;;;;;;5078695;28;20049;-82
2023/10/03 09:58:30;;;;;;;1387.83;580.67;;;16.10;99.90;;;;;;5057723;28;20048;-84
2023/10/03 10:00:57;;;;;;;1380.68;578.00;;;16.10;99.90;;;;;;5059158;28;20374;-84
2023/10/03 10:03:38;;;;;;;1327.40;604.93;;;16.00;99.90;;;;;;5092760;28;20571;-83
2023/10/03 10:06:37;;;;;;;1330.73;601.33;;;15.90;99.90;;;;;;5074838;28;20040;-83
2023/10/03 10:09:14;;;;;;;1331.53;602.80;;;15.80;99.90;;;;;;5091231;28;20119;-83
2023/10/03 10:12:09;;;;;;;1328.00;594.40;;;15.70;99.90;;;;;;5077499;28;20134;-81
2023/10/03 10:15:01;;;;;;;1390.67;583.23;;;15.70;99.90;;;;;;5095752;28;20048;-85
2023/10/03 10:17:49;;;;;;;1323.43;595.10;;;15.60;99.90;;;;;;5073455;28;20489;-82
2023/10/03 10:20:38;;;;;;;1388.53;575.83;;;15.60;99.90;;;;;;5075111;28;20072;-82
2023/10/03 10:25:41;;;;;;;1329.97;604.17;;;15.70;99.90;;;;;;5095159;28;20047;-82
2023/10/03 10:28:31;;;;;;;1394.77;576.70;;;15.70;99.90;;;;;;5076960;28;20131;-83
2023/10/03 10:31:16;;;;;;;1336.80;608.07;;;15.80;99.90;;;;;;5094592;28;20040;-83
2023/10/03 10:33:42;;;;;;;1330.00;606.30;;;15.80;99.90;;;;;;5094693;28;20109;-82
2023/10/03 10:36:10;;;;;;;1344.43;622.37;;;15.90;99.90;;;;;;5076850;28;20044;-83
2023/10/03 10:38:35;;;;;;;1356.37;629.70;;;15.80;99.90;;;;;;5076643;28;20048;-83
2023/10/03 10:41:25;;;;;;;1354.50;623.50;;;15.90;99.90;;;;;;5095303;28;20048;-82
2023/10/03 10:44:13;;;;;;;1352.93;622.07;;;15.90;99.90;;;;;;5056784;28;20057;-82
2023/10/03 10:46:47;;;;;;;1351.07;619.07;;;16.00;99.90;;;;;;5074327;28;20039;-82
2023/10/03 10:49:30;;;;;;;1402.43;581.87;;;15.90;99.90;;;;;;5074366;28;20045;-82
2023/10/03 10:52:01;;;;;;;1404.87;582.87;;;15.90;99.90;;;;;;5090984;28;20140;-82
2023/10/03 10:54:31;;;;;;;1405.87;586.33;;;15.90;99.90;;;;;;5094189;28;20101;-83
2023/10/03 10:57:01;;;;;;;1341.93;618.60;;;16.00;99.90;;;;;;5093673;28;20040;-81
2023/10/03 10:59:27;;;;;;;1401.83;583.03;;;16.10;99.90;;;;;;5094275;28;20142;-82
2023/10/03 11:01:53;;;;;;;1337.13;612.53;;;16.10;99.90;;;;;;5094486;28;20032;-81
2023/10/03 11:04:27;;;;;;;1335.27;613.63;;;16.10;99.90;;;;;;5094580;28;20044;-83
2023/10/03 11:06:52;;;;;;;1388.63;579.93;;;16.20;99.90;;;;;;5076317;28;20052;-83
2023/10/03 11:09:22;;;;;;;1397.67;580.73;;;16.20;99.90;;;;;;5093946;28;20113;-83
2023/10/03 11:11:51;;;;;;;1337.83;612.37;;;16.10;99.90;;;;;;5094172;28;20055;-84
2023/10/03 11:14:31;;;;;;;1396.43;582.20;;;16.00;99.90;;;;;;5073600;28;20127;-82
2023/10/03 11:16:58;;;;;;;1330.53;600.57;;;16.10;99.90;;;;;;5070496;28;20059;-82
2023/10/03 11:19:25;;;;;;;1399.67;582.07;;;16.00;99.90;;;;;;5094059;28;20043;-83
2023/10/03 11:21:51;;;;;;;1337.37;617.63;;;16.10;99.90;;;;;;5075697;28;20099;-83
2023/10/03 11:24:20;;;;;;;1326.83;605.43;;;16.10;99.90;;;;;;5093590;28;20115;-83
2023/10/03 11:26:53;;;;;;;1328.97;608.10;;;16.10;99.90;;;;;;5093414;28;20036;-81
2023/10/03 11:29:34;;;;;;;1327.47;602.40;;;16.20;99.90;;;;;;5093961;28;20392;-82
2023/10/03 11:32:01;;;;;;;1391.60;582.37;;;16.20;99.90;;;;;;5093376;28;20059;-80
2023/10/03 11:34:39;;;;;;;1391.63;583.23;;;16.10;99.90;;;;;;5092974;28;20480;-83
2023/10/03 11:37:05;;;;;;;1388.03;582.00;;;16.20;99.90;;;;;;5075318;28;20044;-82
2023/10/03 11:39:38;;;;;;;1323.80;603.43;;;16.20;99.90;;;;;;5094105;28;20105;-80
2023/10/03 11:42:26;;;;;;;1390.80;584.57;;;16.20;99.90;;;;;;5093814;28;20048;-80
2023/10/03 11:44:59;;;;;;;1390.97;578.27;;;16.20;99.90;;;;;;4990246;28;20058;-80
2023/10/03 11:47:25;;;;;;;1390.43;582.10;;;16.40;99.90;;;;;;4981222;28;20071;-83
2023/10/03 11:49:51;;;;;;;1324.73;605.17;;;16.30;99.90;;;;;;4956115;28;20090;-82
2023/10/03 11:52:17;;;;;;;1327.50;612.87;;;16.40;99.90;;;;;;4960524;28;20042;-80
2023/10/03 11:54:45;;;;;;;1327.67;603.20;;;16.40;99.90;;;;;;4991785;28;20042;-84
2023/10/03 11:57:10;;;;;;;1324.57;606.93;;;16.40;99.90;;;;;;4959179;28;20116;-82
2023/10/03 11:59:36;;;;;;;1383.57;579.13;;;16.40;99.90;;;;;;4991853;28;20498;-82
2023/10/03 12:02:01;;;;;;;1322.67;607.63;;;16.40;99.90;;;;;;4991812;28;20053;-82
2023/10/03 12:04:29;;;;;;;1389.07;579.63;;;16.40;99.90;;;;;;4991081;28;20062;-82
2023/10/03 12:06:55;;;;;;;1325.50;604.23;;;16.40;99.90;;;;;;4974108;28;20146;-83
2023/10/03 12:09:23;;;;;;;1321.87;604.40;;;16.30;99.90;;;;;;4991007;28;20418;-83
2023/10/03 12:11:48;;;;;;;1382.63;582.23;;;16.30;99.90;;;;;;4991561;28;20104;-82
2023/10/03 12:14:14;;;;;;;1382.77;582.83;;;16.10;99.90;;;;;;4991279;28;20474;-83
2023/10/03 12:16:40;;;;;;;1385.73;581.57;;;16.00;99.90;;;;;;4975039;28;20075;-82
2023/10/03 12:19:07;;;;;;;1323.50;603.40;;;16.00;99.90;;;;;;4977088;28;20503;-82